Historyczne dane pomiarowe

Dodano dane terminowe – wersja testowa.

Dane z okresu 1951-2019

Wersja bazy: 1.34 [2019-03-16, lista zmian], aktualizacja planowana na 2019-04-15

Dane meteo z obszaru Polski uzyskane na podstawie danych udostępnionych przez Instytut Meteorologii i Gospodarki Wodnej – Państwowy Instytut Badawczy.

 

Wybierz Datę:    

       

TemperaturaWilgotnośćWiatrCiśnienieOpadyŚniegCzas trwania zjawisk
 Stacja t tx tn tng RH VA  wxwx mslp ppp RRR   cm mm wxwxwxwxwxwxwx
1983-08-14 12.5 17.0 9.0- 62.0- 5.3 4.0---- 0.0------------
1983-08-13 14.5 19.9 13.3- 68.0- 6.7 4.0---- 4.1------------
1983-08-12 18.8 24.6 13.6- 59.5- 2.0 1.7---- 0.0------------
1983-08-11 17.6 22.8 13.6- 67.0- 4.3 2.0---- 14.4------------
1983-08-10 18.2 23.8 12.0- 64.8- 2.3 1.7---- 0.0------------
1983-08-09 17.2 25.5 11.5- 70.5- 6.0 1.3---- 2.5------------
1983-08-08 17.2 22.5 12.0- 68.3- 7.3 1.7---- 4.4------------
1983-08-07 14.8 18.0 13.0- 70.8- 8.0 0.0---- 11.4------------
1983-08-06 15.1 19.4 10.8- 62.5- 6.0 2.7---- 0.8------------
1983-08-05 12.5 15.1 10.0- 68.0- 8.0 2.3---- 0.2------------
1983-08-04 12.8 19.9 11.2- 67.3- 8.0 3.0---- 4.6------------
1983-08-03 20.2 26.4 16.1- 61.0- 5.7 2.3---- 7.2------------
1983-08-02 20.2 29.4 13.1- 57.8- 5.0 2.0---- 10.7------------
1983-08-01 18.2 28.4 7.0- 54.3- 0.0 3.7---- 0.0------------
1983-07-31 17.1 22.2 9.9- 61.3- 0.3 2.3---- 0.0------------
1983-07-30 18.4 22.0 13.1- 63.8- 5.7 3.3---- 0.1------------
1983-07-29 18.9 23.7 13.4- 60.0- 2.0 3.0---- 0.0------------
1983-07-28 22.3 27.7 16.2- 59.3- 5.0 3.7---- 0.0------------
1983-07-27 21.1 29.4 13.4- 62.3- 1.0 3.0---- 0.0------------
1983-07-26 19.9 25.6 11.8- 57.5- 2.0 3.3---- 0.0------------
1983-07-25 16.5 19.8 11.4- 61.8- 2.0 2.7---- 0.0------------
1983-07-24 16.3 21.5 11.2- 66.5- 6.7 3.3---- 1.0------------
1983-07-23 15.9 20.0 12.7- 65.8- 4.7 3.3---- 0.0------------
1983-07-22 11.6 14.7 5.4- 63.8- 8.0 4.0---- 7.6------------
1983-07-21 12.2 15.5 8.2- 59.8- 3.7 3.7---- 0.0------------
1983-07-20 17.6 26.0 13.1- 64.3- 6.7 5.7---- 5.7------------
1983-07-19 21.9 29.5 14.4- 61.3- 2.7 2.7---- 0.0------------
1983-07-18 21.3 29.0 13.6- 57.8- 0.0 2.0---- 0.2------------
1983-07-17 20.9 27.2 13.9- 60.3- 1.7 2.7---- 0.0------------
1983-07-16 19.5 27.4 12.0- 57.5- 0.3 3.0---- 0.0------------
1983-07-15 19.4 23.4 13.9- 56.8- 0.7 2.0---- 0.0------------
1983-07-14 16.2 18.5 14.4- 68.5- 8.0 2.7---- 40.1------------
1983-07-13 17.5 23.1 13.8- 63.3- 6.7 4.3---- 25.7------------
1983-07-12 17.5 22.8 14.1- 70.8- 5.0 3.3---- 7.3------------
1983-07-11 16.4 23.9 13.6- 65.5- 7.0 2.0---- 19.4------------
1983-07-10 20.9 27.5 12.6- 54.0- 1.0 2.7---- 1.1------------
1983-07-09 18.8 26.0 9.4- 54.3- 1.3 2.3---- 0.0------------
1983-07-08 18.7 26.0 9.5- 48.0- 0.0 2.3---- 0.0------------
1983-07-07 20.1 27.0 12.0- 55.3- 0.0 3.0---- 0.0------------
1983-07-06 20.1 27.0 11.5- 60.8- 0.0 2.3---- 0.0------------
1983-07-05 19.1 26.0 10.1- 55.8- 1.3 3.0---- 0.0------------
1983-07-04 18.1 25.0 9.5- 56.0- 1.3 1.7---- 0.0------------
1983-07-03 18.6 22.0 12.0- 55.8- 1.7 2.0---- 0.0------------
1983-07-02 18.4 22.4 14.6- 62.0- 7.0 2.7---- 0.0------------
1983-07-01 18.0 25.1 9.5- 54.0- 2.0 2.7---- 0.0------------
1983-06-30 14.9 22.8 5.5- 56.5- 1.0 2.3---- 0.0------------
1983-06-29 14.4 18.5 11.4- 50.0- 2.7 3.0---- 0.0------------
1983-06-28 15.4 21.0 13.4- 63.8- 8.0 2.3---- 5.4------------
1983-06-27 19.5 27.3 12.0- 55.8- 5.0 4.0---- 3.9------------
1983-06-26 18.1 25.0 13.2- 61.3- 6.7 2.0---- 0.0------------
1983-06-25 19.8 27.3 9.0- 51.3- 0.0 2.7---- 0.0------------
1983-06-24 16.7 25.5 6.4- 56.8- 0.7 2.7---- 0.0------------
1983-06-23 13.0 20.0 3.3- 62.5- 0.0 4.7---- 0.0------------
1983-06-22 15.1 20.8 11.5- 55.8- 1.7 3.7---- 0.0------------
1983-06-21 18.6 24.0 12.2- 64.3- 3.0 4.7---- 0.0------------
1983-06-20 16.6 18.7 14.4- 72.5- 8.0 2.0---- 0.1------------
1983-06-19 13.9 16.7 10.9- 67.8- 8.0 2.0---- 78.2------------
1983-06-18 11.1 13.4 10.0- 72.0- 8.0 3.0---- 14.8------------
1983-06-17 11.1 14.1 9.7- 69.0- 8.0 5.0---- 4.1------------
1983-06-16 10.4 13.9 9.9- 71.8- 8.0 3.7---- 3.5------------
360.6 ms

 

Źródłem pochodzenia danych jest Instytut Meteorologii i Gospodarki Wodnej – Państwowy Instytut Badawczy. Dane Instytutu Meteorologii i Gospodarki Wodnej – Państwowego Instytutu Badawczego zostały przetworzone.

Dane źródłowe można odnaleźć na stronie https://dane.imgw.pl